sensor_id;sensor_type;location;lat;lon;timestamp;pressure;altitude;pressure_sealevel;temperature;humidity
40205;BME280;26963;42.666;23.366;2024-03-23T00:53:18;94976.63;;;7.45;43.48
40205;BME280;26963;42.666;23.366;2024-03-23T00:55:43;94994.16;;;7.46;44.43
40205;BME280;26963;42.666;23.366;2024-03-23T00:58:09;95012.00;;;7.50;44.51
40205;BME280;26963;42.666;23.366;2024-03-23T01:00:35;94959.59;;;7.30;44.38
40205;BME280;26963;42.666;23.366;2024-03-23T01:03:00;94944.19;;;7.27;44.65
40205;BME280;26963;42.666;23.366;2024-03-23T01:05:26;94922.91;;;7.12;45.11
40205;BME280;26963;42.666;23.366;2024-03-23T01:07:52;95001.88;;;7.42;45.12
40205;BME280;26963;42.666;23.366;2024-03-23T01:10:17;94984.13;;;7.27;45.58
40205;BME280;26963;42.666;23.366;2024-03-23T01:12:43;94992.06;;;7.38;45.64
40205;BME280;26963;42.666;23.366;2024-03-23T01:15:09;94992.56;;;7.50;45.24
40205;BME280;26963;42.666;23.366;2024-03-23T01:17:35;94917.63;;;7.07;45.07
40205;BME280;26963;42.666;23.366;2024-03-23T01:20:00;94993.41;;;7.40;45.09
40205;BME280;26963;42.666;23.366;2024-03-23T01:22:26;94860.56;;;6.32;45.29
40205;BME280;26963;42.666;23.366;2024-03-23T01:24:51;94992.13;;;7.17;45.16
40205;BME280;26963;42.666;23.366;2024-03-23T01:27:17;94935.75;;;6.89;45.09
40205;BME280;26963;42.666;23.366;2024-03-23T01:29:43;94981.19;;;7.24;45.31
40205;BME280;26963;42.666;23.366;2024-03-23T01:32:09;94989.41;;;7.32;44.97
40205;BME280;26963;42.666;23.366;2024-03-23T01:34:34;94957.56;;;6.91;45.20
40205;BME280;26963;42.666;23.366;2024-03-23T01:37:00;94992.09;;;7.12;45.35
40205;BME280;26963;42.666;23.366;2024-03-23T01:39:26;94982.28;;;6.97;45.58
40205;BME280;26963;42.666;23.366;2024-03-23T01:41:51;94993.69;;;7.18;45.43
40205;BME280;26963;42.666;23.366;2024-03-23T01:44:17;94981.22;;;7.13;45.37
40205;BME280;26963;42.666;23.366;2024-03-23T01:46:43;94912.38;;;6.76;45.46
40205;BME280;26963;42.666;23.366;2024-03-23T01:49:10;94924.06;;;6.80;45.91
40205;BME280;26963;42.666;23.366;2024-03-23T01:51:36;94983.88;;;7.08;46.23
40205;BME280;26963;42.666;23.366;2024-03-23T01:54:03;94975.66;;;6.94;46.17
40205;BME280;26963;42.666;23.366;2024-03-23T01:56:33;94992.63;;;7.14;46.28
40205;BME280;26963;42.666;23.366;2024-03-23T01:59:04;94927.78;;;6.79;45.79
40205;BME280;26963;42.666;23.366;2024-03-23T02:01:31;94993.44;;;7.25;44.68
40205;BME280;26963;42.666;23.366;2024-03-23T02:03:56;94980.94;;;7.10;44.91
40205;BME280;26963;42.666;23.366;2024-03-23T02:06:24;94991.59;;;6.99;45.67
40205;BME280;26963;42.666;23.366;2024-03-23T02:08:50;95003.56;;;6.97;45.24
40205;BME280;26963;42.666;23.366;2024-03-23T02:11:15;94982.03;;;6.88;46.20
40205;BME280;26963;42.666;23.366;2024-03-23T02:13:41;94767.56;;;5.54;45.86
40205;BME280;26963;42.666;23.366;2024-03-23T02:16:07;94936.31;;;6.60;46.01
40205;BME280;26963;42.666;23.366;2024-03-23T02:18:33;94992.09;;;7.07;45.57
40205;BME280;26963;42.666;23.366;2024-03-23T02:20:58;94992.66;;;7.04;45.10
40205;BME280;26963;42.666;23.366;2024-03-23T02:23:24;95005.41;;;7.12;44.57
40205;BME280;26963;42.666;23.366;2024-03-23T02:25:50;94931.78;;;6.61;44.67
40205;BME280;26963;42.666;23.366;2024-03-23T02:28:16;94999.03;;;7.13;44.54
40205;BME280;26963;42.666;23.366;2024-03-23T02:30:42;94933.09;;;6.68;44.46
40205;BME280;26963;42.666;23.366;2024-03-23T02:33:08;95000.09;;;7.12;45.11
40205;BME280;26963;42.666;23.366;2024-03-23T02:35:34;95000.09;;;7.12;44.81
40205;BME280;26963;42.666;23.366;2024-03-23T02:37:59;94972.44;;;6.97;44.57
40205;BME280;26963;42.666;23.366;2024-03-23T02:40:25;94984.69;;;6.98;44.43
40205;BME280;26963;42.666;23.366;2024-03-23T02:42:52;94997.97;;;7.09;44.97
40205;BME280;26963;42.666;23.366;2024-03-23T02:45:17;94978.81;;;6.91;45.30
40205;BME280;26963;42.666;23.366;2024-03-23T02:47:43;94990.28;;;6.97;45.38
40205;BME280;26963;42.666;23.366;2024-03-23T02:50:09;94994.28;;;6.94;45.83
40205;BME280;26963;42.666;23.366;2024-03-23T02:52:35;94947.22;;;6.69;45.58
40205;BME280;26963;42.666;23.366;2024-03-23T02:55:01;94946.41;;;6.63;46.34
40205;BME280;26963;42.666;23.366;2024-03-23T02:57:27;94953.31;;;6.75;46.49
40205;BME280;26963;42.666;23.366;2024-03-23T02:59:53;94992.69;;;6.88;46.01
40205;BME280;26963;42.666;23.366;2024-03-23T03:02:19;94995.34;;;6.88;45.29
40205;BME280;26963;42.666;23.366;2024-03-23T03:04:46;94969.25;;;6.69;45.24
40205;BME280;26963;42.666;23.366;2024-03-23T03:07:11;94975.63;;;6.68;45.70
40205;BME280;26963;42.666;23.366;2024-03-23T03:09:37;94997.72;;;6.79;44.96
40205;BME280;26963;42.666;23.366;2024-03-23T03:12:06;94985.75;;;6.77;45.11
40205;BME280;26963;42.666;23.366;2024-03-23T03:14:32;94943.47;;;6.49;44.79
40205;BME280;26963;42.666;23.366;2024-03-23T03:16:58;94902.78;;;6.23;45.37
40205;BME280;26963;42.666;23.366;2024-03-23T03:19:24;94918.78;;;6.33;45.68
40205;BME280;26963;42.666;23.366;2024-03-23T03:21:49;94932.06;;;6.44;45.79
40205;BME280;26963;42.666;23.366;2024-03-23T03:24:15;94935.78;;;6.43;45.92
40205;BME280;26963;42.666;23.366;2024-03-23T03:26:41;94972.97;;;6.68;45.83
40205;BME280;26963;42.666;23.366;2024-03-23T03:29:06;94996.91;;;6.79;45.84
40205;BME280;26963;42.666;23.366;2024-03-23T03:31:32;94780.00;;;5.28;45.74
40205;BME280;26963;42.666;23.366;2024-03-23T03:33:57;94935.22;;;6.35;45.98
40205;BME280;26963;42.666;23.366;2024-03-23T03:36:23;94929.91;;;6.25;46.03
40205;BME280;26963;42.666;23.366;2024-03-23T03:38:49;94989.75;;;6.64;46.11
40205;BME280;26963;42.666;23.366;2024-03-23T03:41:14;94997.47;;;6.65;46.03
40205;BME280;26963;42.666;23.366;2024-03-23T03:43:40;95000.91;;;6.61;45.81
40205;BME280;26963;42.666;23.366;2024-03-23T03:46:05;94996.63;;;6.55;45.81
40205;BME280;26963;42.666;23.366;2024-03-23T03:48:33;94997.97;;;6.42;46.44
40205;BME280;26963;42.666;23.366;2024-03-23T03:50:59;94977.22;;;6.28;46.32
40205;BME280;26963;42.666;23.366;2024-03-23T03:53:25;94921.06;;;5.88;46.95
40205;BME280;26963;42.666;23.366;2024-03-23T03:55:51;94991.03;;;6.30;46.88
40205;BME280;26963;42.666;23.366;2024-03-23T03:58:17;94985.16;;;6.23;46.76
40205;BME280;26963;42.666;23.366;2024-03-23T04:00:42;94965.22;;;6.10;47.38
40205;BME280;26963;42.666;23.366;2024-03-23T04:03:08;95008.03;;;6.29;47.34
40205;BME280;26963;42.666;23.366;2024-03-23T04:05:34;94997.66;;;6.17;47.44
40205;BME280;26963;42.666;23.366;2024-03-23T04:07:59;95005.38;;;6.29;47.39
40205;BME280;26963;42.666;23.366;2024-03-23T04:10:25;94987.28;;;6.11;47.72
40205;BME280;26963;42.666;23.366;2024-03-23T04:12:52;94982.69;;;5.96;48.23
40205;BME280;26963;42.666;23.366;2024-03-23T04:15:17;95006.94;;;6.10;48.58
40205;BME280;26963;42.666;23.366;2024-03-23T04:17:46;94984.00;;;5.88;48.51
40205;BME280;26963;42.666;23.366;2024-03-23T04:20:11;94968.53;;;5.75;48.38
40205;BME280;26963;42.666;23.366;2024-03-23T04:22:40;94893.53;;;5.26;48.33
40205;BME280;26963;42.666;23.366;2024-03-23T04:25:06;95024.47;;;6.06;48.52
40205;BME280;26963;42.666;23.366;2024-03-23T04:27:38;95017.81;;;6.08;48.27
40205;BME280;26963;42.666;23.366;2024-03-23T04:30:05;94995.69;;;5.92;48.91
40205;BME280;26963;42.666;23.366;2024-03-23T04:32:36;94967.47;;;5.70;49.00
40205;BME280;26963;42.666;23.366;2024-03-23T04:35:02;94984.19;;;5.76;48.19
40205;BME280;26963;42.666;23.366;2024-03-23T04:37:34;95019.59;;;5.97;48.51
40205;BME280;26963;42.666;23.366;2024-03-23T04:40:01;95006.56;;;5.85;48.09
40205;BME280;26963;42.666;23.366;2024-03-23T04:42:27;95024.34;;;5.90;48.59
40205;BME280;26963;42.666;23.366;2024-03-23T04:44:53;95026.78;;;5.92;48.73
40205;BME280;26963;42.666;23.366;2024-03-23T04:47:18;95010.31;;;5.95;48.29
40205;BME280;26963;42.666;23.366;2024-03-23T04:49:44;94954.66;;;5.52;48.54
40205;BME280;26963;42.666;23.366;2024-03-23T04:52:09;94998.28;;;5.77;48.32
40205;BME280;26963;42.666;23.366;2024-03-23T04:54:35;95025.44;;;5.94;48.53
40205;BME280;26963;42.666;23.366;2024-03-23T04:57:01;94955.69;;;5.46;48.59
40205;BME280;26963;42.666;23.366;2024-03-23T04:59:26;95042.44;;;5.93;48.81
40205;BME280;26963;42.666;23.366;2024-03-23T05:01:52;94965.81;;;5.54;48.82
40205;BME280;26963;42.666;23.366;2024-03-23T05:04:18;94793.72;;;4.41;48.45
40205;BME280;26963;42.666;23.366;2024-03-23T05:06:44;94996.72;;;5.86;47.32
40205;BME280;26963;42.666;23.366;2024-03-23T05:09:09;95027.13;;;6.16;47.37
40205;BME280;26963;42.666;23.366;2024-03-23T05:11:40;94974.66;;;5.75;47.22
40205;BME280;26963;42.666;23.366;2024-03-23T05:14:05;95028.22;;;6.20;46.76
40205;BME280;26963;42.666;23.366;2024-03-23T05:16:31;95015.97;;;6.19;46.90
40205;BME280;26963;42.666;23.366;2024-03-23T05:18:56;95015.97;;;6.19;46.90
40205;BME280;26963;42.666;23.366;2024-03-23T05:21:22;95028.75;;;6.27;46.41
40205;BME280;26963;42.666;23.366;2024-03-23T05:23:48;95019.66;;;6.08;46.08
40205;BME280;26963;42.666;23.366;2024-03-23T05:26:14;94919.63;;;5.50;46.29
40205;BME280;26963;42.666;23.366;2024-03-23T05:28:40;94968.56;;;5.85;46.43
40205;BME280;26963;42.666;23.366;2024-03-23T05:31:05;95017.53;;;6.04;46.65
40205;BME280;26963;42.666;23.366;2024-03-23T05:33:31;95024.44;;;6.00;46.81
40205;BME280;26963;42.666;23.366;2024-03-23T05:35:58;95009.56;;;5.99;47.10
40205;BME280;26963;42.666;23.366;2024-03-23T05:38:24;94992.25;;;5.92;46.68
40205;BME280;26963;42.666;23.366;2024-03-23T05:40:59;94917.47;;;5.42;46.74
40205;BME280;26963;42.666;23.366;2024-03-23T05:43:26;95009.06;;;6.13;46.67
40205;BME280;26963;42.666;23.366;2024-03-23T05:45:58;94952.63;;;5.85;46.31
40205;BME280;26963;42.666;23.366;2024-03-23T05:48:28;95019.50;;;6.40;46.40
40205;BME280;26963;42.666;23.366;2024-03-23T05:50:54;94950.09;;;6.06;45.89
40205;BME280;26963;42.666;23.366;2024-03-23T05:53:20;94942.13;;;6.16;45.58
40205;BME280;26963;42.666;23.366;2024-03-23T05:55:46;95001.97;;;6.65;45.48
40205;BME280;26963;42.666;23.366;2024-03-23T05:58:15;95001.19;;;6.64;45.56
40205;BME280;26963;42.666;23.366;2024-03-23T06:00:40;94995.59;;;6.71;46.27
40205;BME280;26963;42.666;23.366;2024-03-23T06:03:08;95009.16;;;6.90;45.48
40205;BME280;26963;42.666;23.366;2024-03-23T06:05:33;94985.75;;;6.82;45.41
40205;BME280;26963;42.666;23.366;2024-03-23T06:07:59;95000.09;;;7.01;45.48
40205;BME280;26963;42.666;23.366;2024-03-23T06:10:25;94891.66;;;6.47;45.34
40205;BME280;26963;42.666;23.366;2024-03-23T06:12:50;94996.34;;;7.28;45.46
40205;BME280;26963;42.666;23.366;2024-03-23T06:15:18;95013.34;;;7.48;45.11
40205;BME280;26963;42.666;23.366;2024-03-23T06:17:44;95004.03;;;7.45;44.63
40205;BME280;26963;42.666;23.366;2024-03-23T06:20:10;94985.13;;;7.47;44.01
40205;BME280;26963;42.666;23.366;2024-03-23T06:22:36;95013.56;;;7.62;43.90
40205;BME280;26963;42.666;23.366;2024-03-23T06:25:02;95011.66;;;7.67;44.87
40205;BME280;26963;42.666;23.366;2024-03-23T06:27:28;94999.16;;;7.73;44.42
40205;BME280;26963;42.666;23.366;2024-03-23T06:29:54;94934.03;;;7.40;44.49
40205;BME280;26963;42.666;23.366;2024-03-23T06:32:20;94940.94;;;7.46;44.35
40205;BME280;26963;42.666;23.366;2024-03-23T06:34:46;94908.72;;;7.42;45.24
40205;BME280;26963;42.666;23.366;2024-03-23T06:37:12;95000.34;;;8.02;44.98
40205;BME280;26963;42.666;23.366;2024-03-23T06:39:37;95007.03;;;7.99;45.90
40205;BME280;26963;42.666;23.366;2024-03-23T06:42:03;95019.50;;;8.14;45.69
40205;BME280;26963;42.666;23.366;2024-03-23T06:44:29;95001.75;;;8.49;44.92
40205;BME280;26963;42.666;23.366;2024-03-23T06:46:55;95002.97;;;8.96;43.89
40205;BME280;26963;42.666;23.366;2024-03-23T06:49:22;95000.25;;;9.36;43.11
40205;BME280;26963;42.666;23.366;2024-03-23T06:51:48;95000.00;;;9.81;42.28
40205;BME280;26963;42.666;23.366;2024-03-23T06:54:14;94985.13;;;10.42;40.89
40205;BME280;26963;42.666;23.366;2024-03-23T06:56:40;95002.25;;;11.26;39.14
40205;BME280;26963;42.666;23.366;2024-03-23T06:59:06;94989.13;;;11.72;37.92
40205;BME280;26963;42.666;23.366;2024-03-23T07:01:32;94980.56;;;12.12;37.34
40205;BME280;26963;42.666;23.366;2024-03-23T07:04:00;94965.63;;;12.70;35.96
40205;BME280;26963;42.666;23.366;2024-03-23T07:06:25;94967.66;;;13.18;35.05
40205;BME280;26963;42.666;23.366;2024-03-23T07:08:52;94976.19;;;13.75;33.93
40205;BME280;26963;42.666;23.366;2024-03-23T07:11:21;94922.97;;;14.21;33.79
40205;BME280;26963;42.666;23.366;2024-03-23T07:13:50;94911.34;;;15.16;31.92
40205;BME280;26963;42.666;23.366;2024-03-23T07:16:16;94945.88;;;16.09;29.95
40205;BME280;26963;42.666;23.366;2024-03-23T07:18:41;94929.31;;;16.62;28.82
40205;BME280;26963;42.666;23.366;2024-03-23T07:21:07;94954.84;;;17.07;28.24
40205;BME280;26963;42.666;23.366;2024-03-23T07:23:33;94965.13;;;17.26;27.87
40205;BME280;26963;42.666;23.366;2024-03-23T07:26:04;94895.75;;;17.18;27.68
40205;BME280;26963;42.666;23.366;2024-03-23T07:28:32;94948.81;;;18.18;26.91
40205;BME280;26963;42.666;23.366;2024-03-23T07:31:06;94946.69;;;19.21;25.52
40205;BME280;26963;42.666;23.366;2024-03-23T07:33:34;94929.50;;;19.93;24.53
40205;BME280;26963;42.666;23.366;2024-03-23T07:36:00;94896.16;;;20.28;23.49
40205;BME280;26963;42.666;23.366;2024-03-23T07:38:29;94929.81;;;21.18;23.11
40205;BME280;26963;42.666;23.366;2024-03-23T07:41:12;94921.19;;;21.82;21.98
40205;BME280;26963;42.666;23.366;2024-03-23T07:43:39;94890.28;;;21.71;21.65
40205;BME280;26963;42.666;23.366;2024-03-23T07:46:08;94944.53;;;22.33;21.21
40205;BME280;26963;42.666;23.366;2024-03-23T07:48:33;94926.84;;;22.46;20.89
40205;BME280;26963;42.666;23.366;2024-03-23T07:51:07;94767.31;;;21.42;20.78
40205;BME280;26963;42.666;23.366;2024-03-23T07:53:33;94937.31;;;22.75;20.71
40205;BME280;26963;42.666;23.366;2024-03-23T07:56:07;94902.72;;;23.13;19.92
40205;BME280;26963;42.666;23.366;2024-03-23T07:58:33;94899.38;;;23.72;20.09
40205;BME280;26963;42.666;23.366;2024-03-23T08:01:11;94888.16;;;24.40;18.79
40205;BME280;26963;42.666;23.366;2024-03-23T08:03:38;94929.06;;;25.03;18.38
40205;BME280;26963;42.666;23.366;2024-03-23T08:06:08;94870.44;;;25.11;17.92
40205;BME280;26963;42.666;23.366;2024-03-23T08:08:34;94881.50;;;25.54;17.31
40205;BME280;26963;42.666;23.366;2024-03-23T08:11:00;94911.16;;;25.31;17.61
40205;BME280;26963;42.666;23.366;2024-03-23T08:13:26;94915.94;;;25.59;17.71
40205;BME280;26963;42.666;23.366;2024-03-23T08:15:52;94873.28;;;25.83;17.62
40205;BME280;26963;42.666;23.366;2024-03-23T08:18:21;94919.81;;;26.56;17.05
40205;BME280;26963;42.666;23.366;2024-03-23T08:20:47;94907.22;;;26.76;16.14
40205;BME280;26963;42.666;23.366;2024-03-23T08:23:25;94906.28;;;27.08;16.20
40205;BME280;26963;42.666;23.366;2024-03-23T08:25:51;94911.91;;;27.61;15.73
40205;BME280;26963;42.666;23.366;2024-03-23T08:28:16;94754.53;;;27.00;15.97
40205;BME280;26963;42.666;23.366;2024-03-23T08:30:43;94916.78;;;28.78;15.31
40205;BME280;26963;42.666;23.366;2024-03-23T08:33:08;94914.88;;;29.37;14.75
40205;BME280;26963;42.666;23.366;2024-03-23T08:35:34;94905.28;;;29.73;14.43
40205;BME280;26963;42.666;23.366;2024-03-23T08:38:00;94907.59;;;29.20;14.01
40205;BME280;26963;42.666;23.366;2024-03-23T08:40:26;94719.72;;;26.86;15.21
40205;BME280;26963;42.666;23.366;2024-03-23T08:42:51;94895.53;;;27.95;15.47
40205;BME280;26963;42.666;23.366;2024-03-23T08:45:17;94875.00;;;26.91;15.35
40205;BME280;26963;42.666;23.366;2024-03-23T08:47:42;94886.94;;;26.34;16.18
40205;BME280;26963;42.666;23.366;2024-03-23T08:50:08;94884.03;;;24.82;17.41
40205;BME280;26963;42.666;23.366;2024-03-23T08:52:34;94888.63;;;23.93;18.44
40205;BME280;26963;42.666;23.366;2024-03-23T08:54:59;94893.66;;;23.43;19.18
40205;BME280;26963;42.666;23.366;2024-03-23T08:57:25;94856.97;;;22.65;20.07
40205;BME280;26963;42.666;23.366;2024-03-23T08:59:51;94818.41;;;21.75;20.65
40205;BME280;26963;42.666;23.366;2024-03-23T09:02:16;94887.41;;;21.60;21.38
40205;BME280;26963;42.666;23.366;2024-03-23T09:04:42;94875.63;;;21.09;21.65
40205;BME280;26963;42.666;23.366;2024-03-23T09:07:07;94877.38;;;20.78;21.96
40205;BME280;26963;42.666;23.366;2024-03-23T09:09:33;94874.28;;;20.80;22.38
40205;BME280;26963;42.666;23.366;2024-03-23T09:12:01;94831.94;;;20.59;23.05
40205;BME280;26963;42.666;23.366;2024-03-23T09:14:27;94805.28;;;20.45;22.41
40205;BME280;26963;42.666;23.366;2024-03-23T09:16:55;94875.31;;;20.72;21.94
40205;BME280;26963;42.666;23.366;2024-03-23T09:19:20;94818.09;;;19.90;22.42
40205;BME280;26963;42.666;23.366;2024-03-23T09:21:46;94835.19;;;19.58;23.01
40205;BME280;26963;42.666;23.366;2024-03-23T09:24:12;94841.25;;;19.51;23.44
40205;BME280;26963;42.666;23.366;2024-03-23T09:26:37;94848.03;;;19.77;23.50
40205;BME280;26963;42.666;23.366;2024-03-23T09:29:03;94822.69;;;19.85;22.77
40205;BME280;26963;42.666;23.366;2024-03-23T09:31:29;94782.50;;;19.59;22.91
40205;BME280;26963;42.666;23.366;2024-03-23T09:33:58;94816.03;;;19.83;23.37
40205;BME280;26963;42.666;23.366;2024-03-23T09:36:23;94832.31;;;19.83;23.39
40205;BME280;26963;42.666;23.366;2024-03-23T09:38:49;94833.25;;;19.75;22.97
40205;BME280;26963;42.666;23.366;2024-03-23T09:41:15;94805.53;;;19.65;23.23
40205;BME280;26963;42.666;23.366;2024-03-23T09:43:40;94821.63;;;19.74;23.73
40205;BME280;26963;42.666;23.366;2024-03-23T09:46:07;94824.97;;;19.67;22.95
40205;BME280;26963;42.666;23.366;2024-03-23T09:48:33;94793.28;;;19.55;23.07
40205;BME280;26963;42.666;23.366;2024-03-23T09:50:59;94815.94;;;19.63;23.30
40205;BME280;26963;42.666;23.366;2024-03-23T09:53:24;94728.25;;;19.07;23.67
40205;BME280;26963;42.666;23.366;2024-03-23T09:55:50;94747.75;;;18.97;23.37
40205;BME280;26963;42.666;23.366;2024-03-23T09:58:17;94773.09;;;18.89;23.43
40205;BME280;26963;42.666;23.366;2024-03-23T10:00:43;94780.25;;;18.65;23.76
40205;BME280;26963;42.666;23.366;2024-03-23T10:03:09;94798.34;;;18.77;23.92
40205;BME280;26963;42.666;23.366;2024-03-23T10:05:37;94724.78;;;18.47;24.21
40205;BME280;26963;42.666;23.366;2024-03-23T10:10:41;94734.88;;;19.10;24.54
40205;BME280;26963;42.666;23.366;2024-03-23T10:13:07;94767.72;;;19.56;23.82
40205;BME280;26963;42.666;23.366;2024-03-23T10:15:36;94780.72;;;19.83;23.66
40205;BME280;26963;42.666;23.366;2024-03-23T10:18:20;94770.25;;;20.01;22.92
40205;BME280;26963;42.666;23.366;2024-03-23T10:23:31;94754.75;;;20.01;23.09
40205;BME280;26963;42.666;23.366;2024-03-23T10:26:12;94661.16;;;19.40;23.39
40205;BME280;26963;42.666;23.366;2024-03-23T10:31:16;94745.94;;;19.53;24.09
40205;BME280;26963;42.666;23.366;2024-03-23T10:33:46;94679.88;;;19.10;24.21
40205;BME280;26963;42.666;23.366;2024-03-23T10:36:12;94719.91;;;19.32;24.21
40205;BME280;26963;42.666;23.366;2024-03-23T10:38:40;94683.19;;;19.19;24.10
40205;BME280;26963;42.666;23.366;2024-03-23T10:41:08;94717.19;;;19.32;23.78
40205;BME280;26963;42.666;23.366;2024-03-23T10:43:36;94714.94;;;19.34;23.32
40205;BME280;26963;42.666;23.366;2024-03-23T10:46:01;94685.56;;;19.20;23.37
40205;BME280;26963;42.666;23.366;2024-03-23T10:48:27;94688.69;;;19.22;23.17
40205;BME280;26963;42.666;23.366;2024-03-23T10:50:53;94707.59;;;19.19;22.96
40205;BME280;26963;42.666;23.366;2024-03-23T10:53:21;94607.44;;;18.58;23.69
40205;BME280;26963;42.666;23.366;2024-03-23T10:55:50;94698.94;;;19.29;23.64
40205;BME280;26963;42.666;23.366;2024-03-23T10:58:23;94689.63;;;19.30;23.46
40205;BME280;26963;42.666;23.366;2024-03-23T11:00:49;94679.78;;;19.42;23.68
40205;BME280;26963;42.666;23.366;2024-03-23T11:03:31;94650.31;;;19.20;23.55
40205;BME280;26963;42.666;23.366;2024-03-23T11:05:59;94656.00;;;19.15;23.46
40205;BME280;26963;42.666;23.366;2024-03-23T11:08:45;94661.91;;;19.01;23.10
40205;BME280;26963;42.666;23.366;2024-03-23T11:11:17;94590.84;;;18.44;23.34
40205;BME280;26963;42.666;23.366;2024-03-23T11:13:43;94640.38;;;18.77;23.19
40205;BME280;26963;42.666;23.366;2024-03-23T11:16:27;94648.06;;;18.90;23.30
40205;BME280;26963;42.666;23.366;2024-03-23T11:19:33;94646.84;;;18.88;22.88
40205;BME280;26963;42.666;23.366;2024-03-23T11:21:59;94631.03;;;18.90;23.20
40205;BME280;26963;42.666;23.366;2024-03-23T11:24:24;94609.59;;;18.85;23.17
40205;BME280;26963;42.666;23.366;2024-03-23T11:26:50;94629.56;;;19.12;23.29
40205;BME280;26963;42.666;23.366;2024-03-23T11:29:17;94622.97;;;19.29;22.83
40205;BME280;26963;42.666;23.366;2024-03-23T11:31:50;94563.00;;;18.95;22.78
40205;BME280;26963;42.666;23.366;2024-03-23T11:34:16;94610.63;;;19.32;22.56
40205;BME280;26963;42.666;23.366;2024-03-23T11:36:45;94605.06;;;19.25;23.12
40205;BME280;26963;42.666;23.366;2024-03-23T11:39:15;94605.22;;;19.32;23.07
40205;BME280;26963;42.666;23.366;2024-03-23T11:41:55;94457.06;;;18.49;22.90
40205;BME280;26963;42.666;23.366;2024-03-23T11:44:23;94602.00;;;19.46;22.89
40205;BME280;26963;42.666;23.366;2024-03-23T11:46:50;94541.16;;;18.72;23.07
40205;BME280;26963;42.666;23.366;2024-03-23T11:49:21;94589.66;;;18.93;23.55
40205;BME280;26963;42.666;23.366;2024-03-23T11:51:54;94569.72;;;18.85;22.96
40205;BME280;26963;42.666;23.366;2024-03-23T11:54:21;94538.72;;;18.67;23.40
40205;BME280;26963;42.666;23.366;2024-03-23T11:57:01;94569.56;;;18.94;23.54
40205;BME280;26963;42.666;23.366;2024-03-23T11:59:34;94558.09;;;18.85;23.15
40205;BME280;26963;42.666;23.366;2024-03-23T12:02:00;94535.47;;;18.77;23.78
40205;BME280;26963;42.666;23.366;2024-03-23T12:04:27;94567.41;;;19.03;24.07
40205;BME280;26963;42.666;23.366;2024-03-23T12:09:41;94540.88;;;18.93;23.71
40205;BME280;26963;42.666;23.366;2024-03-23T12:12:16;94347.28;;;17.64;23.68
40205;BME280;26963;42.666;23.366;2024-03-23T12:15:01;94537.19;;;19.01;23.66
40205;BME280;26963;42.666;23.366;2024-03-23T12:17:27;94523.88;;;18.96;23.69
40205;BME280;26963;42.666;23.366;2024-03-23T12:19:52;94536.00;;;19.02;23.10
40205;BME280;26963;42.666;23.366;2024-03-23T12:22:22;94540.25;;;18.84;23.16
40205;BME280;26963;42.666;23.366;2024-03-23T12:24:48;94456.75;;;18.34;23.48
40205;BME280;26963;42.666;23.366;2024-03-23T12:27:14;94528.03;;;18.74;23.42
40205;BME280;26963;42.666;23.366;2024-03-23T12:29:43;94516.34;;;18.70;23.48
40205;BME280;26963;42.666;23.366;2024-03-23T12:32:11;94513.13;;;18.64;23.53
40205;BME280;26963;42.666;23.366;2024-03-23T12:34:37;94425.53;;;17.89;23.88
40205;BME280;26963;42.666;23.366;2024-03-23T12:37:03;94509.56;;;18.44;23.56
40205;BME280;26963;42.666;23.366;2024-03-23T12:39:28;94516.66;;;18.49;23.85
40205;BME280;26963;42.666;23.366;2024-03-23T12:41:54;94505.09;;;18.52;24.13
40205;BME280;26963;42.666;23.366;2024-03-23T12:44:20;94426.34;;;18.05;24.06
40205;BME280;26963;42.666;23.366;2024-03-23T12:46:46;94461.75;;;18.32;23.90
40205;BME280;26963;42.666;23.366;2024-03-23T12:49:12;94476.50;;;18.35;22.88
40205;BME280;26963;42.666;23.366;2024-03-23T12:51:38;94443.53;;;17.97;23.30
40205;BME280;26963;42.666;23.366;2024-03-23T12:54:03;94489.09;;;18.27;23.59
40205;BME280;26963;42.666;23.366;2024-03-23T12:56:29;94476.09;;;18.17;23.57
40205;BME280;26963;42.666;23.366;2024-03-23T12:58:55;94470.31;;;18.18;23.71
40205;BME280;26963;42.666;23.366;2024-03-23T13:01:24;94450.53;;;17.98;24.04
40205;BME280;26963;42.666;23.366;2024-03-23T13:03:50;94468.19;;;18.28;23.35
40205;BME280;26963;42.666;23.366;2024-03-23T13:06:16;94399.03;;;17.79;23.29
40205;BME280;26963;42.666;23.366;2024-03-23T13:08:47;94448.41;;;18.07;23.07
40205;BME280;26963;42.666;23.366;2024-03-23T13:11:13;94452.28;;;18.06;22.84
40205;BME280;26963;42.666;23.366;2024-03-23T13:13:39;94433.06;;;17.96;22.87
40205;BME280;26963;42.666;23.366;2024-03-23T13:16:05;94442.06;;;18.00;22.53
40205;BME280;26963;42.666;23.366;2024-03-23T13:18:31;94404.78;;;17.77;22.72
40205;BME280;26963;42.666;23.366;2024-03-23T13:20:58;94430.25;;;17.92;22.36
40205;BME280;26963;42.666;23.366;2024-03-23T13:23:24;94416.97;;;17.87;22.85
40205;BME280;26963;42.666;23.366;2024-03-23T13:25:56;94435.16;;;18.02;22.49
40205;BME280;26963;42.666;23.366;2024-03-23T13:28:22;94426.69;;;18.04;21.02
40205;BME280;26963;42.666;23.366;2024-03-23T13:30:54;94427.56;;;18.08;21.33
40205;BME280;26963;42.666;23.366;2024-03-23T13:33:20;94418.53;;;18.20;20.78
40205;BME280;26963;42.666;23.366;2024-03-23T13:35:52;94412.00;;;18.05;21.41
40205;BME280;26963;42.666;23.366;2024-03-23T13:38:19;94406.53;;;18.01;21.55
40205;BME280;26963;42.666;23.366;2024-03-23T13:40:52;94417.28;;;17.98;20.80
40205;BME280;26963;42.666;23.366;2024-03-23T13:43:18;94405.47;;;17.90;20.75
40205;BME280;26963;42.666;23.366;2024-03-23T13:45:44;94395.34;;;17.87;21.12
40205;BME280;26963;42.666;23.366;2024-03-23T13:48:09;94399.34;;;17.93;21.61
40205;BME280;26963;42.666;23.366;2024-03-23T13:50:35;94345.28;;;17.61;22.93
40205;BME280;26963;42.666;23.366;2024-03-23T13:53:01;94404.88;;;17.97;23.51
40205;BME280;26963;42.666;23.366;2024-03-23T13:55:26;94403.81;;;18.01;23.55
40205;BME280;26963;42.666;23.366;2024-03-23T13:57:52;94402.78;;;17.90;23.76